createdAt,value
2019-01-20T00:00:20.462Z,78726.28
2019-01-20T00:05:46.076Z,78713.20
2019-01-20T00:08:17.615Z,78726.28
2019-01-20T00:10:56.465Z,78738.34
2019-01-20T00:13:29.454Z,78748.41
2019-01-20T00:16:12.616Z,78757.45
2019-01-20T00:18:47.184Z,78775.55
2019-01-20T00:21:19.528Z,78781.59
2019-01-20T00:23:58.021Z,78776.56
2019-01-20T00:26:35.147Z,78759.47
2019-01-20T00:29:10.513Z,78769.52
2019-01-20T00:31:43.143Z,78771.53
2019-01-20T00:34:17.786Z,78799.70
2019-01-20T00:37:00.716Z,78819.81
2019-01-20T00:39:32.270Z,78816.80
2019-01-20T00:42:04.168Z,78819.81
2019-01-20T00:44:39.578Z,78791.65
2019-01-20T00:47:11.737Z,78805.73
2019-01-20T00:49:44.005Z,78845.95
2019-01-20T00:52:16.095Z,78863.05
2019-01-20T00:54:47.510Z,78881.16
2019-01-20T00:57:20.237Z,78879.15
2019-01-20T00:59:55.764Z,78859.03
2019-01-20T01:02:27.122Z,78877.14
2019-01-20T01:05:03.556Z,78882.16
2019-01-20T01:07:36.234Z,78889.20
2019-01-20T01:10:08.484Z,78880.16
2019-01-20T01:12:40.353Z,78874.12
2019-01-20T01:15:12.570Z,78886.19
2019-01-20T01:17:43.826Z,78908.31
2019-01-20T01:20:16.865Z,78916.36
2019-01-20T01:22:48.352Z,78917.37
2019-01-20T01:25:20.092Z,78916.36
2019-01-20T01:27:51.390Z,78905.30
2019-01-20T01:30:27.711Z,78913.34
2019-01-20T01:32:59.023Z,78922.39
2019-01-20T01:35:30.275Z,78921.39
2019-01-20T01:38:01.538Z,78901.28
2019-01-20T01:40:32.754Z,78914.34
2019-01-20T01:43:04.050Z,78925.41
2019-01-20T01:45:35.339Z,78933.46
2019-01-20T01:48:06.695Z,78931.45
2019-01-20T01:50:37.961Z,78925.41
2019-01-20T01:53:09.121Z,78918.38
2019-01-20T01:55:40.429Z,78908.31
2019-01-20T01:58:11.607Z,78867.08
2019-01-20T02:00:42.913Z,78842.94
2019-01-20T02:03:14.173Z,78827.86
2019-01-20T02:05:45.390Z,78837.91
2019-01-20T02:08:16.621Z,78790.64
2019-01-20T02:10:48.034Z,78806.73
2019-01-20T02:13:19.266Z,78805.73
2019-01-20T02:15:50.661Z,78792.66
2019-01-20T02:18:21.998Z,78774.55
2019-01-20T02:20:53.280Z,78796.67
2019-01-20T02:23:24.522Z,78800.70
2019-01-20T02:25:55.866Z,78784.61
2019-01-20T02:28:27.117Z,78770.53
2019-01-20T02:30:58.473Z,78784.61
2019-01-20T02:33:29.774Z,78790.64
2019-01-20T02:36:01.015Z,78793.66
2019-01-20T02:38:32.316Z,78781.59
2019-01-20T02:41:03.578Z,78779.58
2019-01-20T02:43:34.908Z,78769.52
2019-01-20T02:46:06.249Z,78789.64
2019-01-20T02:48:37.549Z,78758.45
2019-01-20T02:51:08.793Z,78748.41
2019-01-20T02:53:40.075Z,78784.61
2019-01-20T02:56:11.421Z,78786.62
2019-01-20T02:58:42.695Z,78779.58
2019-01-20T03:01:13.947Z,78773.55
2019-01-20T03:03:45.201Z,78764.49
2019-01-20T03:06:16.481Z,78756.45
2019-01-20T03:08:47.785Z,78754.44
2019-01-20T03:11:19.020Z,78769.52
2019-01-20T03:13:50.311Z,78761.48
2019-01-20T03:16:21.615Z,78781.59
2019-01-20T03:18:53.254Z,78797.69
2019-01-20T03:21:24.598Z,78809.75
2019-01-20T03:23:55.799Z,78824.84
2019-01-20T03:26:27.074Z,78822.83
2019-01-20T03:28:58.361Z,78817.80
2019-01-20T03:31:29.607Z,78819.81
2019-01-20T03:34:00.989Z,78821.82
2019-01-20T03:36:32.255Z,78808.75
2019-01-20T03:39:03.630Z,78823.83
2019-01-20T03:41:34.898Z,78803.72
2019-01-20T03:44:06.739Z,78793.66
2019-01-20T03:46:38.017Z,78790.64
2019-01-20T03:49:09.285Z,78780.59
2019-01-20T03:51:40.479Z,78778.58
2019-01-20T03:54:11.858Z,78790.64
2019-01-20T03:56:43.507Z,78798.69
2019-01-20T03:59:14.781Z,78801.70
2019-01-20T04:01:46.172Z,78793.66
2019-01-20T04:04:17.420Z,78786.62
2019-01-20T04:06:48.638Z,78779.58
2019-01-20T04:09:20.011Z,78783.60
2019-01-20T04:11:51.262Z,78798.69
2019-01-20T04:14:22.526Z,78800.70
2019-01-20T04:16:53.764Z,78816.80
2019-01-20T04:19:25.110Z,78796.67
2019-01-20T04:21:56.342Z,78800.70
2019-01-20T04:24:28.153Z,78811.77
2019-01-20T04:26:59.399Z,78813.77
2019-01-20T04:29:30.664Z,78805.73
2019-01-20T04:32:01.913Z,78831.88
2019-01-20T04:34:33.136Z,78824.84
2019-01-20T04:37:04.420Z,78820.81
2019-01-20T04:39:35.670Z,78853.00
2019-01-20T04:42:07.089Z,78881.16
2019-01-20T04:44:38.383Z,78908.31
2019-01-20T04:47:09.683Z,78959.61
2019-01-20T04:49:40.991Z,78988.78
2019-01-20T04:52:12.347Z,79007.89
2019-01-20T04:54:43.625Z,79022.97
2019-01-20T04:57:16.631Z,79016.94
2019-01-20T04:59:47.907Z,79034.04
2019-01-20T05:02:19.220Z,79044.09
2019-01-20T05:04:50.365Z,79037.05
2019-01-20T05:07:21.605Z,79046.11
2019-01-20T05:09:52.888Z,79049.13
2019-01-20T05:12:24.140Z,79044.09
2019-01-20T05:14:55.454Z,79059.19
2019-01-20T05:17:26.694Z,79052.14
2019-01-20T05:19:57.972Z,79066.22
2019-01-20T05:22:29.211Z,79079.30
2019-01-20T05:25:00.573Z,79067.23
2019-01-20T05:27:31.850Z,79088.35
2019-01-20T05:30:03.185Z,79110.48
2019-01-20T05:32:34.465Z,79123.56
2019-01-20T05:35:06.219Z,79125.57
2019-01-20T05:37:37.493Z,79133.61
2019-01-20T05:40:10.843Z,79144.67
2019-01-20T05:42:46.450Z,79161.78
2019-01-20T05:45:18.568Z,79167.81
2019-01-20T05:47:49.905Z,79173.84
2019-01-20T05:50:21.407Z,79172.84
2019-01-20T05:52:52.677Z,79182.90
2019-01-20T05:55:23.932Z,79188.94
2019-01-20T05:58:17.031Z,79186.92
2019-01-20T06:00:48.342Z,79196.98
2019-01-20T06:03:19.614Z,79209.05
2019-01-20T06:05:50.807Z,79220.12
2019-01-20T06:08:22.116Z,79229.17
2019-01-20T06:10:53.380Z,79225.14
2019-01-20T06:13:24.692Z,79234.20
2019-01-20T06:15:55.941Z,79232.19
2019-01-20T06:18:27.234Z,79229.17
2019-01-20T06:20:58.633Z,79232.19
2019-01-20T06:23:29.904Z,79234.20
2019-01-20T06:26:01.221Z,79233.19
2019-01-20T06:28:32.485Z,79230.17
2019-01-20T06:31:03.773Z,79247.27
2019-01-20T06:33:35.129Z,79256.33
2019-01-20T06:36:06.601Z,79255.32
2019-01-20T06:38:37.896Z,79254.31
2019-01-20T06:41:09.281Z,79256.33
2019-01-20T06:43:40.534Z,79269.41
2019-01-20T06:46:11.861Z,79284.49
2019-01-20T06:48:43.138Z,79291.53
2019-01-20T06:51:14.434Z,79285.50
2019-01-20T06:53:45.726Z,79293.55
2019-01-20T06:56:17.163Z,79296.56
2019-01-20T06:58:48.419Z,79300.59
2019-01-20T07:01:19.687Z,79304.61
2019-01-20T07:03:51.008Z,79310.64
2019-01-20T07:06:22.278Z,79319.70
2019-01-20T07:08:53.548Z,79327.75
2019-01-20T07:11:24.911Z,79332.77
2019-01-20T07:14:12.032Z,79327.75
2019-01-20T07:16:45.290Z,79331.77
2019-01-20T07:19:17.675Z,79326.73
2019-01-20T07:21:51.483Z,79326.73
2019-01-20T07:24:24.313Z,79335.80
2019-01-20T07:26:56.764Z,79331.77
2019-01-20T07:29:32.789Z,79336.80
2019-01-20T07:32:06.788Z,79339.81
2019-01-20T07:34:40.319Z,79337.80
2019-01-20T07:37:15.945Z,79345.85
2019-01-20T07:39:47.894Z,79343.84
2019-01-20T07:42:19.754Z,79336.80
2019-01-20T07:44:51.624Z,79312.66
2019-01-20T07:47:24.695Z,79309.64
2019-01-20T07:49:56.590Z,79318.69
2019-01-20T07:52:27.917Z,79311.66
2019-01-20T07:55:00.846Z,79300.59
2019-01-20T07:57:33.594Z,79288.52
2019-01-20T08:00:07.654Z,79256.33
2019-01-20T08:02:39.875Z,79244.26
2019-01-20T08:05:15.000Z,79253.31
2019-01-20T08:07:47.801Z,79255.32
2019-01-20T08:10:26.226Z,79263.38
2019-01-20T08:13:00.389Z,79271.41
2019-01-20T08:15:34.272Z,79242.25
2019-01-20T08:18:07.032Z,79217.10
2019-01-20T08:20:43.080Z,79206.03
2019-01-20T08:23:14.518Z,79200.00
2019-01-20T08:25:45.733Z,79202.02
2019-01-20T08:28:16.950Z,79182.90
2019-01-20T08:30:48.200Z,79166.80
2019-01-20T08:33:19.456Z,79154.73
2019-01-20T08:35:50.772Z,79143.67
2019-01-20T08:38:21.930Z,79114.50
2019-01-20T08:40:53.195Z,79022.97
2019-01-20T08:43:31.550Z,78943.52
2019-01-20T08:46:29.634Z,78881.16
2019-01-20T08:49:01.025Z,78804.72
2019-01-20T08:51:33.441Z,78705.16
2019-01-20T08:54:04.725Z,78645.82
2019-01-20T08:56:36.075Z,78579.45
2019-01-20T08:59:07.430Z,78608.61
2019-01-20T09:01:38.848Z,78551.28
2019-01-20T09:04:10.132Z,78565.36
2019-01-20T09:06:41.484Z,78534.19
2019-01-20T09:09:12.716Z,78549.28
2019-01-20T09:11:44.025Z,78485.92
2019-01-20T09:14:15.679Z,78458.77
2019-01-20T09:16:47.006Z,78439.66
2019-01-20T09:19:18.279Z,78420.55
2019-01-20T09:21:49.528Z,78429.60
2019-01-20T09:24:20.870Z,78425.58
2019-01-20T09:26:52.111Z,78460.78
2019-01-20T09:29:23.381Z,78500.00
2019-01-20T09:31:58.517Z,78537.20
2019-01-20T09:34:29.832Z,78568.38
2019-01-20T09:37:01.111Z,78573.41
2019-01-20T09:39:32.339Z,78652.86
2019-01-20T09:42:03.674Z,78657.89
2019-01-20T09:44:34.933Z,78666.94
2019-01-20T09:47:06.344Z,78690.07
2019-01-20T09:49:37.573Z,78712.20
2019-01-20T09:52:08.873Z,78718.23
2019-01-20T09:54:40.110Z,78722.25
2019-01-20T09:57:11.439Z,78708.17
2019-01-20T09:59:42.712Z,78688.06
2019-01-20T10:02:13.968Z,78697.11
2019-01-20T10:04:45.187Z,78704.16
2019-01-20T10:07:16.409Z,78696.11
2019-01-20T10:09:47.766Z,78695.09
2019-01-20T10:12:19.019Z,78672.97
2019-01-20T10:14:50.279Z,78687.05
2019-01-20T10:17:21.490Z,78666.94
2019-01-20T10:19:52.749Z,78664.93
2019-01-20T10:22:23.917Z,78639.78
2019-01-20T10:24:55.245Z,78643.81
2019-01-20T10:27:26.490Z,78611.63
2019-01-20T10:29:57.780Z,78597.55
2019-01-20T10:32:29.170Z,78621.69
2019-01-20T10:35:01.174Z,78592.52
2019-01-20T10:37:34.101Z,78595.53
2019-01-20T10:40:06.022Z,78584.47
2019-01-20T10:42:37.295Z,78580.45
2019-01-20T10:45:10.251Z,78562.34
2019-01-20T10:47:41.604Z,78559.33
2019-01-20T10:50:13.885Z,78552.30
2019-01-20T10:52:45.415Z,78569.39
2019-01-20T10:55:16.655Z,78545.25
2019-01-20T10:57:48.028Z,78540.22
2019-01-20T11:00:25.911Z,78540.22
2019-01-20T11:02:57.197Z,78525.14
2019-01-20T11:05:30.475Z,78507.04
2019-01-20T11:08:01.604Z,78515.08
2019-01-20T11:10:33.068Z,78532.18
2019-01-20T11:13:04.411Z,78519.11
2019-01-20T11:15:36.087Z,78506.03
2019-01-20T11:18:14.607Z,78508.05
2019-01-20T11:20:50.275Z,78505.03
2019-01-20T11:23:23.316Z,78472.84
2019-01-20T11:25:54.597Z,78479.89
2019-01-20T11:28:26.241Z,78478.88
2019-01-20T11:30:57.569Z,78481.90
2019-01-20T11:33:28.859Z,78449.72
2019-01-20T11:36:00.114Z,78452.73
2019-01-20T11:38:31.529Z,78463.80
2019-01-20T11:41:02.847Z,78455.75
2019-01-20T11:43:34.135Z,78430.61
2019-01-20T11:46:05.462Z,78400.44
2019-01-20T11:48:36.710Z,78405.47
2019-01-20T11:51:08.017Z,78421.56
2019-01-20T11:53:58.237Z,78402.45
2019-01-20T11:56:29.497Z,78421.56
2019-01-20T11:59:00.780Z,78410.50
2019-01-20T12:01:32.014Z,78427.59
2019-01-20T12:04:03.238Z,78416.53
2019-01-20T12:06:34.423Z,78392.39
2019-01-20T12:09:08.548Z,78372.28
2019-01-20T12:11:39.873Z,78391.39
2019-01-20T12:14:11.263Z,78351.16
2019-01-20T12:16:42.539Z,78374.30
2019-01-20T12:19:13.829Z,78351.16
2019-01-20T12:21:45.022Z,78336.08
2019-01-20T12:24:16.318Z,78339.09
2019-01-20T12:26:47.590Z,78318.98
2019-01-20T12:29:18.835Z,78311.95
2019-01-20T12:31:50.091Z,78328.04
2019-01-20T12:34:21.360Z,78313.95
2019-01-20T12:36:52.581Z,78300.89
2019-01-20T12:39:23.887Z,78303.91
2019-01-20T12:41:55.166Z,78305.91
2019-01-20T12:44:31.523Z,78269.71
2019-01-20T12:47:01.866Z,78281.78
2019-01-20T12:49:33.164Z,78277.76
2019-01-20T12:52:04.455Z,78265.69
2019-01-20T12:54:35.674Z,78267.70
2019-01-20T12:57:06.953Z,78268.70
2019-01-20T12:59:38.380Z,78260.66
2019-01-20T13:02:09.688Z,78257.65
2019-01-20T13:04:40.841Z,78248.59
2019-01-20T13:07:12.236Z,78241.56
2019-01-20T13:09:43.642Z,78244.58
2019-01-20T13:12:14.950Z,78243.56
2019-01-20T13:14:46.193Z,78245.58
2019-01-20T13:17:17.440Z,78216.42
2019-01-20T13:19:48.729Z,78226.47
2019-01-20T13:22:19.870Z,78236.53
2019-01-20T13:24:51.141Z,78211.39
2019-01-20T13:27:22.403Z,78225.47
2019-01-20T13:29:53.752Z,78219.44
2019-01-20T13:32:25.035Z,78225.47
2019-01-20T13:34:56.286Z,78191.28
2019-01-20T13:37:27.510Z,78200.33
2019-01-20T13:39:58.766Z,78192.28
2019-01-20T13:42:30.093Z,78215.41
2019-01-20T13:45:01.271Z,78207.37
2019-01-20T13:47:32.554Z,78208.38
2019-01-20T13:50:03.769Z,78209.38
2019-01-20T13:52:34.991Z,78202.34
2019-01-20T13:55:07.627Z,78201.33
2019-01-20T13:57:38.893Z,78221.45
2019-01-20T14:00:18.698Z,78216.42
2019-01-20T14:02:50.047Z,78217.42
2019-01-20T14:05:21.458Z,78221.45
2019-01-20T14:07:52.810Z,78220.44
2019-01-20T14:10:24.783Z,78232.50
2019-01-20T14:15:24.625Z,78258.66
2019-01-20T14:17:55.886Z,78239.55
2019-01-20T14:20:27.699Z,78245.58
2019-01-20T14:22:59.162Z,78242.56
2019-01-20T14:25:30.631Z,78257.65
2019-01-20T14:28:02.046Z,78258.66
2019-01-20T14:30:33.867Z,78262.67
2019-01-20T14:33:05.305Z,78275.75
2019-01-20T14:35:36.545Z,78271.72
2019-01-20T14:38:07.982Z,78264.69
2019-01-20T14:40:39.257Z,78278.77
2019-01-20T14:43:10.541Z,78279.77
2019-01-20T14:45:41.784Z,78274.73
2019-01-20T14:48:13.019Z,78274.73
2019-01-20T14:50:44.255Z,78273.73
2019-01-20T14:53:15.682Z,78298.88
2019-01-20T14:55:46.917Z,78311.95
2019-01-20T14:58:18.087Z,78304.91
2019-01-20T15:00:49.400Z,78300.89
2019-01-20T15:03:20.631Z,78301.89
2019-01-20T15:05:51.813Z,78314.97
2019-01-20T15:08:23.150Z,78323.02
2019-01-20T15:10:54.585Z,78332.06
2019-01-20T15:13:26.006Z,78327.03
2019-01-20T15:15:57.494Z,78333.06
2019-01-20T15:18:28.765Z,78331.05
2019-01-20T15:21:00.636Z,78357.20
2019-01-20T15:23:31.802Z,78381.33
2019-01-20T15:26:02.963Z,78402.45
2019-01-20T15:28:34.443Z,78416.53
2019-01-20T15:31:05.739Z,78425.58
2019-01-20T15:33:37.113Z,78437.65
2019-01-20T15:36:09.868Z,78450.72
2019-01-20T15:38:41.222Z,78428.59
2019-01-20T15:41:12.531Z,78420.55
2019-01-20T15:43:43.770Z,78430.61
2019-01-20T15:46:14.962Z,78452.73
2019-01-20T15:48:46.284Z,78447.70
2019-01-20T15:51:17.644Z,78482.91
2019-01-20T15:53:48.828Z,78523.13
2019-01-20T15:56:20.194Z,78534.19
2019-01-20T15:58:54.716Z,78580.45
2019-01-20T16:01:25.908Z,78578.44
2019-01-20T16:03:57.152Z,78595.53
2019-01-20T16:06:28.416Z,78602.58
2019-01-20T16:08:59.676Z,78643.81
2019-01-20T16:11:31.393Z,78656.88
2019-01-20T16:14:02.891Z,78679.01
2019-01-20T16:16:34.352Z,78673.98
2019-01-20T16:19:05.638Z,78693.09
2019-01-20T16:21:36.844Z,78714.20
2019-01-20T16:24:08.092Z,78722.25
2019-01-20T16:26:39.676Z,78742.37
2019-01-20T16:29:10.901Z,78750.41
2019-01-20T16:31:42.137Z,78769.52
2019-01-20T16:34:13.502Z,78753.43
2019-01-20T16:36:44.947Z,78757.45
2019-01-20T16:39:16.219Z,78766.50
2019-01-20T16:41:47.620Z,78781.59
2019-01-20T16:44:18.863Z,78788.63
2019-01-20T16:46:50.125Z,78808.75
2019-01-20T16:49:21.398Z,78823.83
2019-01-20T16:51:52.628Z,78844.95
2019-01-20T16:54:23.805Z,78858.03
2019-01-20T16:56:55.389Z,78854.00
2019-01-20T16:59:26.666Z,78856.02
2019-01-20T17:01:58.074Z,78875.13
2019-01-20T17:04:29.378Z,78890.21
2019-01-20T17:07:00.623Z,78897.25
2019-01-20T17:09:31.896Z,78911.33
2019-01-20T17:12:06.076Z,78909.32
2019-01-20T17:14:39.623Z,78915.36
2019-01-20T17:17:10.930Z,78937.48
2019-01-20T17:19:42.060Z,78960.61
2019-01-20T17:22:13.298Z,78944.52
2019-01-20T17:24:44.854Z,78948.55
2019-01-20T17:27:16.179Z,78960.61
2019-01-20T17:30:04.974Z,78970.67
2019-01-20T17:32:36.363Z,78972.69
2019-01-20T17:35:09.923Z,78963.63
2019-01-20T17:37:41.421Z,78979.73
2019-01-20T17:40:16.784Z,78988.78
2019-01-20T17:42:59.599Z,78995.81
2019-01-20T17:45:46.940Z,78993.81
2019-01-20T17:48:13.337Z,79006.88
2019-01-20T17:50:46.309Z,79003.86
2019-01-20T17:53:18.058Z,79000.84
2019-01-20T17:55:49.360Z,79006.88
2019-01-20T17:58:20.682Z,79008.89
2019-01-20T18:00:58.898Z,79007.89
2019-01-20T18:03:30.220Z,78962.63
2019-01-20T18:06:01.667Z,78938.48
2019-01-20T18:08:32.993Z,78943.52
2019-01-20T18:11:04.323Z,78948.55
2019-01-20T18:13:35.641Z,78962.63
2019-01-20T18:16:07.217Z,78944.52
2019-01-20T18:18:38.583Z,78959.61
2019-01-20T18:21:10.031Z,78975.70
2019-01-20T18:23:48.504Z,78987.77
2019-01-20T18:26:19.968Z,79004.88
2019-01-20T18:28:51.296Z,79024.98
2019-01-20T18:31:22.593Z,79036.05
2019-01-20T18:33:54.298Z,79040.08
2019-01-20T18:36:25.794Z,79062.20
2019-01-20T18:38:57.160Z,79074.27
2019-01-20T18:41:28.448Z,79072.26
2019-01-20T18:43:59.778Z,79089.36
2019-01-20T18:46:31.091Z,79108.47
2019-01-20T18:49:02.435Z,79118.53
2019-01-20T18:53:59.881Z,79144.67
2019-01-20T18:56:31.456Z,79160.77
2019-01-20T18:59:02.804Z,79160.77
2019-01-20T19:01:34.253Z,79163.79
2019-01-20T19:04:08.425Z,79173.84
2019-01-20T19:06:39.725Z,79171.84
2019-01-20T19:09:11.388Z,79181.89
2019-01-20T19:11:42.673Z,79203.02
2019-01-20T19:14:14.015Z,79216.09
2019-01-20T19:16:45.378Z,79232.19
2019-01-20T19:19:16.735Z,79210.06
2019-01-20T19:21:48.041Z,79221.13
2019-01-20T19:24:19.331Z,79217.10
2019-01-20T19:26:50.708Z,79212.07
2019-01-20T19:29:22.086Z,79202.02
2019-01-20T19:31:53.487Z,79218.11
2019-01-20T19:34:24.809Z,79237.22
2019-01-20T19:36:56.130Z,79247.27
2019-01-20T19:39:27.460Z,79244.26
2019-01-20T19:41:58.815Z,79249.28
2019-01-20T19:44:30.222Z,79260.35
2019-01-20T19:47:01.534Z,79286.50
2019-01-20T19:49:32.922Z,79294.55
2019-01-20T19:52:04.314Z,79305.62
2019-01-20T19:54:35.582Z,79314.67
2019-01-20T19:57:06.985Z,79293.55
2019-01-20T19:59:38.320Z,79255.32
2019-01-20T20:02:09.658Z,79234.20
2019-01-20T20:04:40.928Z,79164.80
2019-01-20T20:07:12.313Z,79118.53
2019-01-20T20:09:43.613Z,79107.47
2019-01-20T20:12:14.899Z,79102.44
2019-01-20T20:14:46.165Z,79108.47
2019-01-20T20:17:17.449Z,79074.27
2019-01-20T20:19:48.750Z,79018.95
2019-01-20T20:22:20.046Z,79046.11
2019-01-20T20:24:51.377Z,79041.08
2019-01-20T20:27:22.699Z,79029.01
2019-01-20T20:29:53.993Z,79015.94
2019-01-20T20:32:25.236Z,78995.81
2019-01-20T20:34:56.646Z,79010.91
2019-01-20T20:37:27.861Z,79030.02
2019-01-20T20:39:59.103Z,79070.25
2019-01-20T20:42:30.373Z,79095.39
2019-01-20T20:45:01.672Z,79104.45
2019-01-20T20:47:32.993Z,79104.45
2019-01-20T20:50:04.439Z,79132.61
2019-01-20T20:52:35.836Z,79161.78
2019-01-20T20:55:08.122Z,79150.72
2019-01-20T20:57:39.541Z,79189.94
2019-01-20T21:00:44.868Z,79206.03
2019-01-20T21:03:23.678Z,79226.16
2019-01-20T21:05:55.217Z,79226.16
2019-01-20T21:08:27.379Z,79241.24
2019-01-20T21:10:59.040Z,79248.28
2019-01-20T21:13:34.139Z,79256.33
2019-01-20T21:16:06.525Z,79261.36
2019-01-20T21:18:39.781Z,79275.44
2019-01-20T21:21:12.267Z,79293.55
2019-01-20T21:23:47.819Z,79290.53
2019-01-20T21:26:32.712Z,79284.49
2019-01-20T21:29:32.631Z,79277.45
2019-01-20T21:32:39.473Z,79273.42
2019-01-20T21:35:33.541Z,79269.41
2019-01-20T21:38:12.995Z,79260.35
2019-01-20T21:40:51.820Z,79247.27
2019-01-20T21:43:25.701Z,79240.23
2019-01-20T21:45:57.306Z,79225.14
2019-01-20T21:48:28.777Z,79241.24
2019-01-20T21:51:00.208Z,79237.22
2019-01-20T21:53:31.727Z,79222.13
2019-01-20T21:56:03.189Z,79249.28
2019-01-20T21:58:34.663Z,79266.39
2019-01-20T22:01:06.883Z,79270.41
2019-01-20T22:03:38.596Z,79273.42
2019-01-20T22:06:10.091Z,79275.44
2019-01-20T22:08:41.805Z,79291.53
2019-01-20T22:11:13.612Z,79303.61
2019-01-20T22:13:45.137Z,79338.81
2019-01-20T22:16:16.568Z,79350.88
2019-01-20T22:18:48.912Z,79369.99
2019-01-20T22:21:21.417Z,79380.05
2019-01-20T22:23:52.712Z,79387.09
2019-01-20T22:26:24.068Z,79413.25
2019-01-20T22:28:55.445Z,79422.30
2019-01-20T22:31:26.762Z,79427.33
2019-01-20T22:33:58.234Z,79445.44
2019-01-20T22:36:29.643Z,79459.52
2019-01-20T22:39:00.968Z,79462.54
2019-01-20T22:41:32.355Z,79481.66
2019-01-20T22:44:03.636Z,79485.67
2019-01-20T22:46:35.065Z,79494.73
2019-01-20T22:49:06.375Z,79500.77
2019-01-20T22:51:37.707Z,79514.84
2019-01-20T22:54:09.020Z,79514.84
2019-01-20T22:56:40.376Z,79521.89
2019-01-20T22:59:11.752Z,79530.94
2019-01-20T23:01:43.264Z,79533.95
2019-01-20T23:04:14.602Z,79541.00
2019-01-20T23:06:45.984Z,79550.05
2019-01-20T23:09:17.301Z,79544.02
2019-01-20T23:11:48.611Z,79536.98
2019-01-20T23:14:19.937Z,79514.84
2019-01-20T23:16:51.206Z,79455.50
2019-01-20T23:19:22.515Z,79461.53
2019-01-20T23:21:53.757Z,79428.34
2019-01-20T23:24:25.026Z,79400.17
2019-01-20T23:26:56.338Z,79422.30
2019-01-20T23:29:27.623Z,79450.47
2019-01-20T23:31:58.952Z,79490.70
2019-01-20T23:34:30.349Z,79516.86
2019-01-20T23:37:01.867Z,79530.94
2019-01-20T23:39:33.264Z,79545.02
2019-01-20T23:42:04.659Z,79569.17
2019-01-20T23:44:36.386Z,79597.34
2019-01-20T23:47:14.916Z,79616.45
2019-01-20T23:49:41.150Z,79627.52
2019-01-20T23:52:13.629Z,79632.55
2019-01-20T23:54:45.341Z,79608.40
2019-01-20T23:57:17.004Z,79602.36
2019-01-20T23:59:48.553Z,79608.40
